createdAt,value
2022-10-05T00:00:56.203Z,99846.81
2022-10-05T00:03:26.045Z,99842.66
2022-10-05T00:05:53.996Z,99839.50
2022-10-05T00:08:27.609Z,99838.03
2022-10-05T00:10:54.418Z,99828.84
2022-10-05T00:13:27.503Z,99826.28
2022-10-05T00:16:19.381Z,99824.84
2022-10-05T00:18:50.718Z,99821.25
2022-10-05T00:21:26.106Z,99815.34
2022-10-05T00:23:56.590Z,99821.25
2022-10-05T00:26:27.037Z,99817.47
2022-10-05T00:28:54.850Z,99807.38
2022-10-05T00:31:30.161Z,99807.00
2022-10-05T00:33:57.882Z,99800.00
2022-10-05T00:36:26.412Z,99802.81
2022-10-05T00:38:54.615Z,99793.19
2022-10-05T00:41:35.157Z,99793.56
2022-10-05T00:44:38.562Z,99785.13
2022-10-05T00:47:26.624Z,99787.25
2022-10-05T00:50:38.401Z,99789.84
2022-10-05T00:53:45.489Z,99788.56
2022-10-05T00:56:30.201Z,99780.75
2022-10-05T00:59:40.244Z,99769.22
2022-10-05T01:02:15.908Z,99771.34
2022-10-05T01:05:18.034Z,99765.25
2022-10-05T01:08:30.019Z,99768.84
2022-10-05T01:11:09.918Z,99767.09
2022-10-05T01:13:45.751Z,99764.59
2022-10-05T01:16:36.558Z,99747.50
2022-10-05T01:19:19.393Z,99739.19
2022-10-05T01:22:28.249Z,99735.00
2022-10-05T01:25:51.819Z,99734.78
2022-10-05T01:28:21.623Z,99731.81
2022-10-05T01:31:01.912Z,99738.09
2022-10-05T01:33:41.493Z,99729.31
2022-10-05T01:36:59.316Z,99725.53
2022-10-05T01:39:46.239Z,99733.25
2022-10-05T01:42:41.680Z,99732.19
2022-10-05T01:45:26.561Z,99722.94
2022-10-05T01:48:09.066Z,99722.94
2022-10-05T01:50:58.138Z,99704.88
2022-10-05T01:54:15.565Z,99708.59
2022-10-05T01:57:12.804Z,99694.56
2022-10-05T02:00:18.148Z,99695.88
2022-10-05T02:02:56.480Z,99687.81
2022-10-05T02:05:55.021Z,99675.59
2022-10-05T02:08:33.950Z,99681.06
2022-10-05T02:11:09.125Z,99672.88
2022-10-05T02:14:00.724Z,99664.06
2022-10-05T02:16:40.717Z,99663.59
2022-10-05T02:19:29.367Z,99659.81
2022-10-05T02:22:08.617Z,99662.06
2022-10-05T02:24:43.181Z,99646.53
2022-10-05T02:27:15.789Z,99645.94
2022-10-05T02:29:47.446Z,99638.09
2022-10-05T02:32:22.682Z,99635.34
2022-10-05T02:34:50.121Z,99640.38
2022-10-05T02:37:44.053Z,99619.22
2022-10-05T02:40:50.514Z,99628.47
2022-10-05T02:43:24.638Z,99618.97
2022-10-05T02:46:31.276Z,99601.75
2022-10-05T02:49:36.315Z,99604.72
2022-10-05T02:53:14.856Z,99595.09
2022-10-05T02:56:21.650Z,99574.16
2022-10-05T02:59:18.033Z,99576.94
2022-10-05T03:01:48.828Z,99564.81
2022-10-05T03:04:34.774Z,99569.19
2022-10-05T03:07:16.269Z,99564.31
2022-10-05T03:10:00.931Z,99557.66
2022-10-05T03:12:52.752Z,99556.84
2022-10-05T03:15:38.297Z,99545.47
2022-10-05T03:18:32.513Z,99550.34
2022-10-05T03:21:29.002Z,99547.22
2022-10-05T03:24:28.865Z,99549.69
2022-10-05T03:27:17.563Z,99540.09
2022-10-05T03:30:27.789Z,99531.75
2022-10-05T03:33:10.691Z,99515.28
2022-10-05T03:35:55.103Z,99528.56
2022-10-05T03:38:36.802Z,99522.88
2022-10-05T03:41:23.874Z,99516.09
2022-10-05T03:44:16.190Z,99515.50
2022-10-05T03:46:49.406Z,99506.56
2022-10-05T03:49:37.396Z,99512.78
2022-10-05T03:52:17.933Z,99494.84
2022-10-05T03:55:04.270Z,99477.88
2022-10-05T03:57:37.627Z,99472.41
2022-10-05T04:00:18.015Z,99471.81
2022-10-05T04:03:06.043Z,99460.28
2022-10-05T04:05:41.515Z,99458.59
2022-10-05T04:08:18.772Z,99437.13
2022-10-05T04:10:58.738Z,99427.75
2022-10-05T04:13:41.717Z,99445.56
2022-10-05T04:16:28.299Z,99446.41
2022-10-05T04:19:04.299Z,99433.34
2022-10-05T04:21:44.811Z,99429.66
2022-10-05T04:24:19.420Z,99432.97
2022-10-05T04:27:01.819Z,99443.31
2022-10-05T04:29:48.786Z,99433.56
2022-10-05T04:32:36.277Z,99418.25
2022-10-05T04:35:38.324Z,99409.81
2022-10-05T04:38:58.097Z,99411.13
2022-10-05T04:41:56.260Z,99405.66
2022-10-05T04:44:45.208Z,99391.53
2022-10-05T04:47:58.550Z,99393.91
2022-10-05T04:51:02.970Z,99375.16
2022-10-05T04:53:44.719Z,99366.38
2022-10-05T04:56:36.789Z,99364.47
2022-10-05T04:59:36.712Z,99365.41
2022-10-05T05:02:17.853Z,99348.78
2022-10-05T05:05:23.970Z,99341.16
2022-10-05T05:08:07.069Z,99350.22
2022-10-05T05:11:24.980Z,99341.66
2022-10-05T05:14:42.331Z,99340.94
2022-10-05T05:17:25.618Z,99327.41
2022-10-05T05:20:31.882Z,99319.31
2022-10-05T05:23:21.501Z,99333.13
2022-10-05T05:26:30.160Z,99314.13
2022-10-05T05:29:27.877Z,99317.44
2022-10-05T05:32:04.037Z,99307.34
2022-10-05T05:34:49.130Z,99317.81
2022-10-05T05:38:13.462Z,99309.47
2022-10-05T05:41:11.969Z,99296.78
2022-10-05T05:44:12.910Z,99314.00
2022-10-05T05:47:04.448Z,99304.25
2022-10-05T05:49:44.288Z,99306.38
2022-10-05T05:52:20.578Z,99306.38
2022-10-05T05:54:58.085Z,99300.56
2022-10-05T05:57:48.906Z,99299.72
2022-10-05T06:00:31.216Z,99300.06
2022-10-05T06:03:08.538Z,99300.47
2022-10-05T06:06:14.634Z,99302.38
2022-10-05T06:08:42.935Z,99305.69
2022-10-05T06:11:46.258Z,99304.88
2022-10-05T06:14:25.555Z,99302.22
2022-10-05T06:17:14.478Z,99309.97
2022-10-05T06:19:42.962Z,99303.44
2022-10-05T06:22:26.125Z,99289.03
2022-10-05T06:25:15.242Z,99290.09
2022-10-05T06:28:11.535Z,99289.03
2022-10-05T06:30:52.407Z,99286.31
2022-10-05T06:33:48.119Z,99296.19
2022-10-05T06:36:32.650Z,99294.97
2022-10-05T06:39:27.270Z,99288.91
2022-10-05T06:42:44.581Z,99286.28
2022-10-05T06:45:56.761Z,99298.06
2022-10-05T06:48:44.805Z,99288.75
2022-10-05T06:51:24.152Z,99287.56
2022-10-05T06:54:12.617Z,99298.25
2022-10-05T06:57:03.893Z,99291.81
2022-10-05T06:59:53.972Z,99299.03
2022-10-05T07:02:46.601Z,99305.13
2022-10-05T07:05:54.366Z,99295.81
2022-10-05T07:08:34.094Z,99300.22
2022-10-05T07:11:24.016Z,99297.00
2022-10-05T07:13:56.622Z,99293.19
2022-10-05T07:16:47.555Z,99288.19
2022-10-05T07:19:44.627Z,99289.88
2022-10-05T07:22:33.408Z,99290.94
2022-10-05T07:25:36.922Z,99298.66
2022-10-05T07:28:12.366Z,99293.78
2022-10-05T07:31:05.579Z,99299.50
2022-10-05T07:33:49.270Z,99296.50
2022-10-05T07:36:41.434Z,99291.63
2022-10-05T07:39:36.811Z,99304.56
2022-10-05T07:43:00.177Z,99304.31
2022-10-05T07:45:34.825Z,99302.66
2022-10-05T07:48:39.745Z,99308.16
2022-10-05T07:51:18.062Z,99303.97
2022-10-05T07:54:16.319Z,99313.25
2022-10-05T07:56:50.903Z,99299.81
2022-10-05T07:59:54.503Z,99309.38
2022-10-05T08:02:50.002Z,99298.66
2022-10-05T08:05:51.690Z,99300.22
2022-10-05T08:08:54.131Z,99299.78
2022-10-05T08:12:34.944Z,99292.75
2022-10-05T08:15:33.931Z,99304.41
2022-10-05T08:18:11.854Z,99304.84
2022-10-05T08:20:50.909Z,99289.88
2022-10-05T08:24:05.558Z,99285.22
2022-10-05T08:27:07.597Z,99284.41
2022-10-05T08:29:58.566Z,99276.28
2022-10-05T08:32:56.070Z,99280.94
2022-10-05T08:35:34.541Z,99264.38
2022-10-05T08:38:28.214Z,99271.25
2022-10-05T08:41:34.454Z,99270.53
2022-10-05T08:44:13.772Z,99278.25
2022-10-05T08:47:08.846Z,99273.34
2022-10-05T08:50:18.930Z,99267.97
2022-10-05T08:53:40.760Z,99262.03
2022-10-05T08:56:35.953Z,99267.81
2022-10-05T08:59:25.152Z,99273.78
2022-10-05T09:02:33.826Z,99268.56
2022-10-05T09:05:35.300Z,99272.53
2022-10-05T09:08:45.909Z,99261.25
2022-10-05T09:12:01.627Z,99262.56
2022-10-05T09:15:26.458Z,99259.66
2022-10-05T09:18:45.091Z,99253.81
2022-10-05T09:21:40.516Z,99260.28
2022-10-05T09:24:24.507Z,99255.13
2022-10-05T09:27:11.366Z,99264.78
2022-10-05T09:30:58.192Z,99271.56
2022-10-05T09:34:37.597Z,99283.66
2022-10-05T09:37:21.225Z,99277.63
2022-10-05T09:40:31.069Z,99288.50
2022-10-05T09:44:15.340Z,99301.06
2022-10-05T09:46:55.184Z,99289.78
2022-10-05T09:52:58.302Z,99314.66
2022-10-05T09:56:05.605Z,99304.28
2022-10-05T09:58:45.098Z,99316.06
2022-10-05T10:01:57.568Z,99314.28
2022-10-05T10:05:06.276Z,99312.13
2022-10-05T10:07:58.574Z,99338.66
2022-10-05T10:10:55.309Z,99359.53
2022-10-05T10:14:13.304Z,99381.34
2022-10-05T10:17:17.285Z,99378.75
2022-10-05T10:20:14.880Z,99405.22
2022-10-05T10:23:15.267Z,99435.56
2022-10-05T10:26:40.837Z,99441.50
2022-10-05T10:29:52.327Z,99428.31
2022-10-05T10:33:01.050Z,99428.53
2022-10-05T10:36:20.945Z,99459.91
2022-10-05T10:39:52.915Z,99468.72
2022-10-05T10:42:43.720Z,99464.94
2022-10-05T10:45:57.294Z,99483.47
2022-10-05T10:49:07.624Z,99508.25
2022-10-05T10:52:13.099Z,99526.53
2022-10-05T10:55:06.610Z,99517.53
2022-10-05T10:59:00.223Z,99544.59
2022-10-05T11:02:19.962Z,99555.56
2022-10-05T11:05:11.634Z,99564.53
2022-10-05T11:08:54.739Z,99574.19
2022-10-05T11:12:35.034Z,99581.81
2022-10-05T11:15:43.366Z,99577.63
2022-10-05T11:18:32.107Z,99582.66
2022-10-05T11:21:23.451Z,99585.13
2022-10-05T11:24:40.077Z,99599.34
2022-10-05T11:27:18.259Z,99603.53
2022-10-05T11:30:07.299Z,99628.19
2022-10-05T11:33:21.423Z,99648.75
2022-10-05T11:35:51.826Z,99639.13
2022-10-05T11:39:22.413Z,99640.16
2022-10-05T11:42:25.213Z,99639.66
2022-10-05T11:45:18.542Z,99627.94
2022-10-05T11:48:19.266Z,99635.22
2022-10-05T11:50:58.075Z,99653.22
2022-10-05T11:53:39.953Z,99636.66
2022-10-05T11:57:08.713Z,99627.84
2022-10-05T11:59:44.354Z,99635.97
2022-10-05T12:02:51.599Z,99647.31
2022-10-05T12:05:43.742Z,99648.88
2022-10-05T12:08:24.151Z,99653.50
2022-10-05T12:11:30.084Z,99645.47
2022-10-05T12:14:24.694Z,99652.59
2022-10-05T12:17:02.083Z,99667.44
2022-10-05T12:19:39.473Z,99669.75
2022-10-05T12:22:27.955Z,99667.66
2022-10-05T12:25:17.461Z,99658.25
2022-10-05T12:27:52.414Z,99667.63
2022-10-05T12:30:49.398Z,99667.97
2022-10-05T12:33:36.001Z,99661.53
2022-10-05T12:36:46.295Z,99664.69
2022-10-05T12:43:58.151Z,99665.88
2022-10-05T12:47:25.072Z,99682.22
2022-10-05T12:50:09.341Z,99692.25
2022-10-05T13:15:20.043Z,99721.13
2022-10-05T13:18:19.406Z,99730.09
2022-10-05T13:21:22.551Z,99732.84
2022-10-05T13:24:07.188Z,99726.34
2022-10-05T13:26:48.787Z,99743.97
2022-10-05T13:29:44.187Z,99736.78
2022-10-05T13:32:54.746Z,99745.97
2022-10-05T13:35:32.528Z,99751.22
2022-10-05T13:38:25.440Z,99744.34
2022-10-05T13:41:17.411Z,99764.84
2022-10-05T13:43:58.725Z,99755.25
2022-10-05T13:46:43.432Z,99755.63
2022-10-05T13:49:36.514Z,99761.72
2022-10-05T13:52:22.502Z,99766.06
2022-10-05T13:55:21.526Z,99774.44
2022-10-05T13:58:20.987Z,99776.69
2022-10-05T14:00:58.392Z,99780.50
2022-10-05T14:03:31.238Z,99797.38
2022-10-05T14:06:03.850Z,99802.78
2022-10-05T14:08:52.213Z,99797.31
2022-10-05T14:11:35.362Z,99790.56
2022-10-05T14:14:28.369Z,99787.41
2022-10-05T14:19:52.032Z,99801.34
2022-10-05T14:22:22.570Z,99793.44
2022-10-05T14:25:06.542Z,99794.66
2022-10-05T14:28:03.268Z,99800.06
2022-10-05T14:30:33.265Z,99813.22
2022-10-05T14:33:06.395Z,99826.06
2022-10-05T14:35:52.982Z,99820.50
2022-10-05T14:38:35.829Z,99822.72
2022-10-05T14:41:27.801Z,99830.22
2022-10-05T14:44:05.635Z,99841.53
2022-10-05T14:46:35.553Z,99861.47
2022-10-05T14:49:13.640Z,99848.84
2022-10-05T14:51:42.622Z,99854.97
2022-10-05T14:54:28.166Z,99861.94
2022-10-05T14:56:59.990Z,99870.94
2022-10-05T14:59:53.939Z,99879.81
2022-10-05T15:02:57.964Z,99873.94
2022-10-05T15:05:49.428Z,99873.97
2022-10-05T15:08:45.521Z,99877.38
2022-10-05T15:11:50.894Z,99868.78
2022-10-05T15:14:42.767Z,99873.44
2022-10-05T15:17:19.845Z,99871.19
2022-10-05T15:20:06.421Z,99878.56
2022-10-05T15:22:50.678Z,99874.97
2022-10-05T15:25:27.235Z,99888.03
2022-10-05T15:28:36.116Z,99900.22
2022-10-05T15:31:40.323Z,99904.84
2022-10-05T15:34:21.439Z,99912.19
2022-10-05T15:37:08.168Z,99917.22
2022-10-05T15:39:49.916Z,99916.38
2022-10-05T15:42:20.569Z,99918.69
2022-10-05T15:45:19.525Z,99935.66
2022-10-05T15:48:00.170Z,99935.66
2022-10-05T15:50:56.043Z,99938.59
2022-10-05T15:54:23.506Z,99944.66
2022-10-05T15:57:11.339Z,99950.78
2022-10-05T16:00:12.661Z,99959.78
2022-10-05T16:03:13.432Z,99970.25
2022-10-05T16:06:11.659Z,99975.69
2022-10-05T16:09:06.379Z,99971.75
2022-10-05T16:11:51.714Z,99985.78
2022-10-05T16:15:06.806Z,99993.31
2022-10-05T16:17:48.893Z,99996.25
2022-10-05T16:21:03.599Z,100007.97
2022-10-05T16:23:49.281Z,100033.09
2022-10-05T16:26:29.350Z,100043.97
2022-10-05T16:29:19.030Z,100044.59
2022-10-05T16:32:00.737Z,100050.59
2022-10-05T16:35:35.491Z,100064.03
2022-10-05T16:38:25.098Z,100076.56
2022-10-05T16:41:03.969Z,100091.69
2022-10-05T16:43:52.614Z,100102.13
2022-10-05T16:46:38.486Z,100102.94
2022-10-05T16:49:33.059Z,100118.06
2022-10-05T16:52:01.424Z,100115.13
2022-10-05T16:54:47.949Z,100137.06
2022-10-05T16:57:25.293Z,100143.53
2022-10-05T17:00:16.696Z,100165.47
2022-10-05T17:03:25.172Z,100155.16
2022-10-05T17:06:24.341Z,100164.28
2022-10-05T17:09:29.408Z,100163.28
2022-10-05T17:11:59.010Z,100183.41
2022-10-05T17:14:44.092Z,100193.34
2022-10-05T17:17:44.937Z,100192.63
2022-10-05T17:20:29.921Z,100201.06
2022-10-05T17:23:18.522Z,100201.47
2022-10-05T17:25:53.653Z,100219.38
2022-10-05T17:28:21.197Z,100219.34
2022-10-05T17:30:54.351Z,100221.19
2022-10-05T17:33:31.545Z,100235.47
2022-10-05T17:36:08.699Z,100243.38
2022-10-05T17:38:35.711Z,100247.94
2022-10-05T17:41:31.428Z,100258.34
2022-10-05T17:44:16.469Z,100267.81
2022-10-05T17:46:46.414Z,100279.69
2022-10-05T17:49:23.059Z,100276.63
2022-10-05T17:52:11.894Z,100302.72
2022-10-05T17:55:04.175Z,100297.22
2022-10-05T17:57:32.940Z,100310.63
2022-10-05T18:00:41.177Z,100320.91
2022-10-05T18:03:43.777Z,100330.81
2022-10-05T18:06:26.061Z,100336.63
2022-10-05T18:09:36.233Z,100354.03
2022-10-05T18:12:25.613Z,100360.97
2022-10-05T18:15:07.732Z,100384.25
2022-10-05T18:17:50.826Z,100386.00
2022-10-05T18:20:32.043Z,100398.75
2022-10-05T18:23:09.533Z,100401.16
2022-10-05T18:25:48.891Z,100403.22
2022-10-05T18:28:44.381Z,100410.44
2022-10-05T18:31:25.045Z,100422.66
2022-10-05T18:34:13.664Z,100438.34
2022-10-05T18:37:36.455Z,100438.00
2022-10-05T18:40:26.829Z,100448.34
2022-10-05T18:43:18.377Z,100457.41
2022-10-05T18:45:58.971Z,100460.16
2022-10-05T18:48:49.600Z,100474.84
2022-10-05T18:52:00.975Z,100464.25
2022-10-05T18:54:49.049Z,100481.31
2022-10-05T18:57:57.479Z,100502.75
2022-10-05T19:00:26.411Z,100513.88
2022-10-05T19:03:03.009Z,100524.94
2022-10-05T19:05:59.301Z,100518.47
2022-10-05T19:08:49.806Z,100523.09
2022-10-05T19:11:30.071Z,100518.22
2022-10-05T19:14:15.111Z,100521.75
2022-10-05T19:17:12.344Z,100537.19
2022-10-05T19:20:14.373Z,100545.66
2022-10-05T19:23:18.360Z,100541.28
2022-10-05T19:26:17.672Z,100548.56
2022-10-05T19:29:22.846Z,100561.13
2022-10-05T19:32:05.719Z,100581.44
2022-10-05T19:35:11.570Z,100573.81
2022-10-05T19:38:05.981Z,100596.22
2022-10-05T19:41:06.577Z,100599.66
2022-10-05T19:43:58.588Z,100599.78
2022-10-05T19:47:10.333Z,100596.63
2022-10-05T19:49:49.868Z,100601.00
2022-10-05T19:52:45.214Z,100603.88
2022-10-05T19:55:26.586Z,100626.91
2022-10-05T19:57:56.626Z,100622.00
2022-10-05T20:00:32.833Z,100629.28
2022-10-05T20:03:19.915Z,100628.94
2022-10-05T20:05:48.625Z,100634.19
2022-10-05T20:08:20.619Z,100645.72
2022-10-05T20:11:07.772Z,100643.50
2022-10-05T20:13:36.005Z,100655.19
2022-10-05T20:16:37.085Z,100664.69
2022-10-05T20:19:44.621Z,100676.00
2022-10-05T20:22:46.611Z,100684.44
2022-10-05T20:25:37.202Z,100684.44
2022-10-05T20:28:04.054Z,100690.00
2022-10-05T20:30:33.950Z,100698.50
2022-10-05T20:33:10.956Z,100695.94
2022-10-05T20:35:38.061Z,100701.50
2022-10-05T20:38:04.875Z,100710.97
2022-10-05T20:40:32.015Z,100728.56
2022-10-05T20:42:59.238Z,100719.41
2022-10-05T20:45:26.661Z,100726.84
2022-10-05T20:47:53.567Z,100737.84
2022-10-05T20:50:22.370Z,100739.88
2022-10-05T20:52:49.253Z,100758.97
2022-10-05T20:55:16.338Z,100758.47
2022-10-05T20:57:43.426Z,100767.75
2022-10-05T21:00:12.853Z,100779.59
2022-10-05T21:02:40.272Z,100798.69
2022-10-05T21:05:08.190Z,100801.56
2022-10-05T21:07:35.461Z,100806.59
2022-10-05T21:10:03.925Z,100813.19
2022-10-05T21:12:31.024Z,100814.38
2022-10-05T21:14:59.805Z,100821.06
2022-10-05T21:17:26.913Z,100838.50
2022-10-05T21:19:54.045Z,100828.47
2022-10-05T21:22:20.851Z,100845.69
2022-10-05T21:24:48.601Z,100845.19
2022-10-05T21:27:15.770Z,100851.44
2022-10-05T21:29:44.251Z,100853.06
2022-10-05T21:32:12.059Z,100871.00
2022-10-05T21:34:40.831Z,100871.47
2022-10-05T21:37:08.830Z,100880.59
2022-10-05T21:39:36.864Z,100877.34
2022-10-05T21:42:04.622Z,100880.38
2022-10-05T21:44:31.537Z,100874.25
2022-10-05T21:46:58.585Z,100877.81
2022-10-05T21:49:26.775Z,100889.94
2022-10-05T21:51:54.586Z,100897.38
2022-10-05T21:54:23.309Z,100907.50
2022-10-05T21:56:54.293Z,100912.97
2022-10-05T21:59:24.947Z,100936.28
2022-10-05T22:01:51.982Z,100931.75
2022-10-05T22:04:19.268Z,100933.22
2022-10-05T22:06:46.501Z,100945.16
2022-10-05T22:09:13.514Z,100957.16
2022-10-05T22:11:40.379Z,100959.16
2022-10-05T22:14:07.297Z,100957.44
2022-10-05T22:16:37.549Z,100966.56
2022-10-05T22:19:07.462Z,100963.16
2022-10-05T22:21:41.750Z,100977.97
2022-10-05T22:24:10.656Z,100976.28
2022-10-05T22:26:38.744Z,100990.78
2022-10-05T22:29:05.626Z,100990.63
2022-10-05T22:31:32.575Z,100992.09
2022-10-05T22:33:59.841Z,101004.06
2022-10-05T22:36:27.222Z,101002.94
2022-10-05T22:38:55.179Z,101014.31
2022-10-05T22:41:22.070Z,101013.28
2022-10-05T22:43:50.533Z,101013.59
2022-10-05T22:46:18.827Z,101020.69
2022-10-05T22:48:45.802Z,101013.75
2022-10-05T22:51:12.778Z,101015.88
2022-10-05T22:53:40.297Z,101023.13
2022-10-05T22:56:13.752Z,101013.16
2022-10-05T22:58:42.276Z,101026.41
2022-10-05T23:01:18.897Z,101028.09
2022-10-05T23:03:46.484Z,101028.97
2022-10-05T23:06:17.836Z,101037.59
2022-10-05T23:08:46.140Z,101043.72
2022-10-05T23:11:16.729Z,101058.63
2022-10-05T23:13:51.256Z,101054.06
2022-10-05T23:16:21.756Z,101062.03
2022-10-05T23:18:51.033Z,101062.75
2022-10-05T23:21:20.353Z,101074.38
2022-10-05T23:23:49.378Z,101081.50
2022-10-05T23:26:17.458Z,101076.81
2022-10-05T23:28:48.264Z,101079.38
2022-10-05T23:31:19.130Z,101075.09
2022-10-05T23:33:46.118Z,101081.03
2022-10-05T23:36:17.033Z,101080.34
2022-10-05T23:38:44.468Z,101084.22
2022-10-05T23:41:11.819Z,101089.16
2022-10-05T23:43:39.275Z,101091.03
2022-10-05T23:46:07.712Z,101093.72
2022-10-05T23:48:38.135Z,101093.56
2022-10-05T23:51:12.033Z,101100.28
2022-10-05T23:53:38.874Z,101105.09
2022-10-05T23:56:06.044Z,101108.78
2022-10-05T23:58:32.989Z,101112.50
